Time;durP1;ratioP1;P1;durP2;ratioP2;P2;SDS_P1;SDS_P2;PMS_P1;PMS_P2;Temp;Humidity;BMP_temperature;BMP_pressure;BME280_temperature;BME280_humidity;BME280_pressure;Samples;Min_cycle;Max_cycle;Signal;HPM_P1;HPM_P2
2022/04/05 00:01:36;;;;;;;10.75;9.63;;;;;;;4.92;78.20;99423.16;5068792;28;20043;-25
2022/04/05 00:04:02;;;;;;;10.82;9.70;;;;;;;4.92;78.13;99402.25;5086243;28;20389;-20
2022/04/05 00:06:27;;;;;;;11.05;9.48;;;;;;;4.95;77.72;99401.34;5083179;28;20036;-25
2022/04/05 00:08:53;;;;;;;10.43;9.38;;;;;;;4.98;78.06;99406.56;5086312;28;20034;-22
2022/04/05 00:11:18;;;;;;;10.52;9.48;;;;;;;4.97;77.36;99397.84;5086555;28;20364;-19
2022/04/05 00:13:44;;;;;;;10.43;9.25;;;;;;;5.01;77.44;99411.78;5083072;28;20081;-23
2022/04/05 00:16:10;;;;;;;10.75;9.40;;;;;;;4.98;78.05;99404.81;5085590;28;20063;-19
2022/04/05 00:18:37;;;;;;;10.18;9.02;;;;;;;5.00;77.21;99391.72;5088367;28;20020;-19
2022/04/05 00:21:02;;;;;;;10.43;9.43;;;;;;;4.97;78.39;99397.84;5089331;28;20059;-20
2022/04/05 00:23:28;;;;;;;10.35;9.25;;;;;;;5.00;78.35;99397.81;5087660;28;20596;-28
2022/04/05 00:25:53;;;;;;;12.43;9.90;;;;;;;4.97;78.31;99392.63;5084269;28;20028;-19
2022/04/05 00:28:19;;;;;;;10.18;9.07;;;;;;;5.00;77.76;99389.09;5083931;28;20483;-20
2022/04/05 00:30:44;;;;;;;10.57;9.45;;;;;;;4.96;78.29;99369.97;5086785;28;20115;-22
2022/04/05 00:33:10;;;;;;;11.75;9.52;;;;;;;4.98;78.00;99375.19;5070291;28;20028;-20
2022/04/05 00:35:35;;;;;;;10.43;9.27;;;;;;;4.97;78.78;99383.94;5069785;28;20027;-22
2022/04/05 00:38:01;;;;;;;9.98;8.73;;;;;;;4.97;78.56;99379.53;5086321;28;20024;-21
2022/04/05 00:40:26;;;;;;;11.40;9.50;;;;;;;5.02;78.28;99379.53;5086911;28;20035;-20
2022/04/05 00:42:51;;;;;;;9.52;8.52;;;;;;;5.05;78.24;99360.34;5085815;28;20032;-24
2022/04/05 00:45:20;;;;;;;9.50;8.60;;;;;;;5.06;78.31;99369.91;5084356;28;20019;-23
2022/04/05 00:47:49;;;;;;;9.32;8.32;;;;;;;5.01;78.45;99370.81;5080844;28;20026;-19
2022/04/05 00:50:21;;;;;;;8.93;8.02;;;;;;;5.03;78.68;99376.03;5088871;28;20024;-19
2022/04/05 00:52:47;;;;;;;9.75;8.77;;;;;;;5.00;78.30;99371.69;5087810;28;20243;-20
2022/04/05 00:55:13;;;;;;;9.50;8.27;;;;;;;5.06;78.10;99369.91;5067378;28;20126;-19
2022/04/05 00:57:40;;;;;;;9.27;8.27;;;;;;;5.07;78.02;99366.44;5068692;28;20020;-19
2022/04/05 01:00:08;;;;;;;9.82;8.82;;;;;;;5.03;78.85;99362.09;5071423;28;20429;-21
2022/04/05 01:02:37;;;;;;;9.25;8.13;;;;;;;5.07;78.84;99358.59;5071352;28;20032;-21
2022/04/05 01:05:04;;;;;;;8.13;7.35;;;;;;;5.09;78.08;99356.81;5087858;28;20036;-21
2022/04/05 01:07:31;;;;;;;11.35;8.55;;;;;;;5.07;78.55;99359.44;5090314;28;20125;-21
2022/04/05 01:09:57;;;;;;;8.63;7.82;;;;;;;5.09;78.13;99367.28;5068879;28;20024;-21
2022/04/05 01:12:23;;;;;;;8.40;7.60;;;;;;;5.10;78.34;99363.81;5088170;28;22254;-21
2022/04/05 01:14:49;;;;;;;8.35;7.15;;;;;;;5.09;78.04;99362.03;5086643;28;20111;-21
2022/04/05 01:17:16;;;;;;;7.72;7.00;;;;;;;5.09;77.99;99352.47;5089418;28;20027;-21
2022/04/05 01:19:41;;;;;;;7.95;7.18;;;;;;;5.14;77.65;99365.50;5088235;28;20019;-21
2022/04/05 01:22:07;;;;;;;7.93;7.13;;;;;;;5.15;78.66;99367.22;5069656;28;20020;-21
2022/04/05 01:24:32;;;;;;;8.55;7.55;;;;;;;5.19;77.38;99362.84;5084554;28;20102;-21
2022/04/05 01:26:59;;;;;;;8.30;7.38;;;;;;;5.16;78.35;99363.72;5086598;28;20028;-21
2022/04/05 01:29:26;;;;;;;8.02;7.32;;;;;;;5.22;77.48;99368.03;5093172;28;20085;-22
2022/04/05 01:31:55;;;;;;;7.65;6.93;;;;;;;5.23;77.59;99370.66;5088983;28;20494;-21
2022/04/05 01:34:22;;;;;;;7.72;6.88;;;;;;;5.19;78.26;99368.94;5070921;28;20043;-22
2022/04/05 01:36:50;;;;;;;7.38;6.68;;;;;;;5.21;77.81;99355.88;5052046;28;20035;-21
2022/04/05 01:39:17;;;;;;;14.73;7.25;;;;;;;5.24;77.10;99359.31;5063731;28;20024;-21
2022/04/05 01:41:44;;;;;;;8.18;6.85;;;;;;;5.24;77.80;99355.84;5083707;28;20023;-21
2022/04/05 01:44:11;;;;;;;7.72;7.03;;;;;;;5.26;77.46;99359.28;5084541;28;20474;-21
2022/04/05 01:46:37;;;;;;;7.70;6.28;;;;;;;5.23;77.88;99352.34;5083739;28;20099;-21
2022/04/05 01:49:10;;;;;;;7.43;6.65;;;;;;;5.24;77.94;99354.06;5083757;28;20024;-21
2022/04/05 01:51:37;;;;;;;7.28;6.57;;;;;;;5.23;78.22;99360.19;5087994;28;20024;-22
2022/04/05 01:54:06;;;;;;;6.95;6.25;;;;;;;5.26;78.61;99360.19;5087815;28;20085;-21
2022/04/05 01:56:41;;;;;;;7.20;6.50;;;;;;;5.25;79.23;99360.19;5091637;28;20027;-21
2022/04/05 01:59:07;;;;;;;7.18;6.47;;;;;;;5.24;79.15;99367.16;5045876;28;20454;-20
2022/04/05 02:01:32;;;;;;;7.35;6.57;;;;;;;5.25;79.56;99370.63;5089231;28;20020;-21
2022/04/05 02:03:58;;;;;;;7.18;6.47;;;;;;;5.24;79.97;99372.38;5091266;28;20022;-21
2022/04/05 02:06:24;;;;;;;7.25;6.55;;;;;;;5.25;78.77;99370.63;5087994;28;20371;-20
2022/04/05 02:08:50;;;;;;;7.20;6.50;;;;;;;5.23;80.00;99368.03;5090372;28;20027;-21
2022/04/05 02:11:16;;;;;;;7.07;6.38;;;;;;;5.22;79.56;99371.53;5086059;28;20077;-21
2022/04/05 02:13:41;;;;;;;7.35;6.60;;;;;;;5.21;80.29;99380.28;5085555;28;20030;-20
2022/04/05 02:16:07;;;;;;;7.82;6.57;;;;;;;5.21;79.98;99369.81;5090092;28;20429;-20
2022/04/05 02:18:35;;;;;;;6.97;6.28;;;;;;;5.19;80.91;99379.41;5088438;28;20036;-21
2022/04/05 02:21:00;;;;;;;7.22;6.50;;;;;;;5.21;80.47;99366.31;5090866;28;20028;-21
2022/04/05 02:23:26;;;;;;;7.45;6.75;;;;;;;5.19;80.47;99368.94;5074527;28;20160;-21
2022/04/05 02:25:51;;;;;;;7.90;7.00;;;;;;;5.18;80.75;99372.44;5089401;28;20027;-21
2022/04/05 02:28:17;;;;;;;7.60;6.90;;;;;;;5.18;80.44;99364.59;5091015;28;20063;-21
2022/04/05 02:30:42;;;;;;;6.70;6.05;;;;;;;5.17;80.68;99373.31;5072420;28;20401;-21
2022/04/05 02:33:08;;;;;;;7.32;6.63;;;;;;;5.19;80.97;99362.84;5092463;28;20023;-21
2022/04/05 02:35:33;;;;;;;6.97;6.28;;;;;;;5.19;80.87;99363.72;5090145;28;20578;-21
2022/04/05 02:38:02;;;;;;;6.93;6.22;;;;;;;5.17;80.91;99360.22;5092754;28;20436;-21
2022/04/05 02:40:28;;;;;;;7.13;6.45;;;;;;;5.14;81.20;99357.66;5093662;28;20027;-21
2022/04/05 02:42:55;;;;;;;6.85;6.15;;;;;;;5.17;80.61;99355.00;5093233;28;20023;-20
2022/04/05 02:45:20;;;;;;;6.38;5.78;;;;;;;5.18;80.65;99366.34;5090521;28;20111;-21
2022/04/05 02:47:45;;;;;;;6.53;5.93;;;;;;;5.16;81.00;99357.66;5074639;28;20141;-21
2022/04/05 02:50:11;;;;;;;6.57;5.85;;;;;;;5.18;81.07;99366.34;5088860;28;20027;-20
2022/04/05 02:52:36;;;;;;;7.97;6.82;;;;;;;5.19;80.67;99368.94;5071556;28;20550;-21
2022/04/05 02:55:03;;;;;;;7.30;6.55;;;;;;;5.14;81.21;99362.91;5085551;28;20065;-20
2022/04/05 02:57:29;;;;;;;7.07;6.38;;;;;;;5.17;81.13;99370.69;5091244;28;20070;-21
2022/04/05 02:59:54;;;;;;;6.97;6.28;;;;;;;5.17;81.33;99365.47;5091118;28;20043;-20
2022/04/05 03:02:20;;;;;;;7.80;6.63;;;;;;;5.18;81.13;99369.81;5089719;28;20448;-21
2022/04/05 03:04:45;;;;;;;7.95;6.50;;;;;;;5.15;81.31;99375.06;5094818;28;20494;-21
2022/04/05 03:07:10;;;;;;;6.78;6.18;;;;;;;5.16;81.38;99363.72;5092185;28;20016;-21
2022/04/05 03:09:36;;;;;;;7.15;6.45;;;;;;;5.17;81.35;99370.69;5090344;28;20015;-21
2022/04/05 03:12:01;;;;;;;7.40;6.65;;;;;;;5.14;81.49;99370.75;5087731;28;20030;-21
2022/04/05 03:14:27;;;;;;;6.47;5.88;;;;;;;5.18;80.60;99367.22;5084920;28;20891;-21
2022/04/05 03:16:52;;;;;;;7.75;6.55;;;;;;;5.17;81.15;99381.13;5087603;28;20413;-21
2022/04/05 03:19:18;;;;;;;6.95;6.30;;;;;;;5.18;80.64;99377.66;5089025;28;20027;-20
2022/04/05 03:21:43;;;;;;;7.10;6.40;;;;;;;5.14;81.46;99379.44;5089575;28;20679;-21
2022/04/05 03:24:09;;;;;;;7.05;6.35;;;;;;;5.18;80.85;99385.50;5090483;28;20035;-21
2022/04/05 03:26:34;;;;;;;8.00;7.22;;;;;;;5.19;81.57;99389.84;5087653;28;20077;-21
2022/04/05 03:29:00;;;;;;;7.80;6.55;;;;;;;5.20;80.45;99386.34;5082765;28;20085;-25
2022/04/05 03:31:25;;;;;;;9.15;7.15;;;;;;;5.20;81.26;99391.59;5086946;28;20111;-24
2022/04/05 03:33:51;;;;;;;7.30;6.55;;;;;;;5.15;81.31;99398.59;5090689;28;20115;-25
2022/04/05 03:36:16;;;;;;;8.13;7.32;;;;;;;5.17;81.71;99401.22;5091456;28;20027;-25
2022/04/05 03:38:42;;;;;;;8.10;7.13;;;;;;;5.18;81.01;99400.31;5086803;28;20032;-24
2022/04/05 03:41:07;;;;;;;7.00;6.30;;;;;;;5.19;80.77;99402.94;5068630;28;20077;-24
2022/04/05 03:43:32;;;;;;;7.90;7.10;;;;;;;5.21;80.54;99401.19;5085184;28;20471;-22
2022/04/05 03:45:58;;;;;;;7.55;6.85;;;;;;;5.22;80.46;99409.88;5086659;28;20024;-25
2022/04/05 03:48:23;;;;;;;7.50;6.80;;;;;;;5.20;81.16;99404.66;5086605;28;20020;-24
2022/04/05 03:50:49;;;;;;;7.30;6.68;;;;;;;5.19;81.25;99400.31;5087657;28;20115;-24
2022/04/05 03:53:15;;;;;;;7.82;7.03;;;;;;;5.21;80.78;99413.38;5089636;28;20040;-24
2022/04/05 03:55:42;;;;;;;7.53;6.82;;;;;;;5.21;81.01;99408.16;5086493;28;20051;-23
2022/04/05 03:58:08;;;;;;;9.43;7.57;;;;;;;5.20;80.90;99402.03;5089798;28;20028;-25
2022/04/05 04:00:34;;;;;;;8.00;6.25;;;;;;;5.22;81.23;99415.09;5087297;28;20096;-25
2022/04/05 04:02:59;;;;;;;7.50;6.80;;;;;;;5.19;81.54;99412.50;5071132;28;20023;-25
2022/04/05 04:05:25;;;;;;;7.85;7.05;;;;;;;5.20;81.07;99407.25;5087806;28;20027;-21
2022/04/05 04:07:51;;;;;;;7.13;6.43;;;;;;;5.19;80.89;99405.53;5084426;28;20024;-23
2022/04/05 04:10:17;;;;;;;7.50;6.80;;;;;;;5.20;81.30;99411.66;5070064;28;20032;-25
2022/04/05 04:12:42;;;;;;;7.93;7.13;;;;;;;5.16;81.99;99400.31;5089578;28;20073;-25
2022/04/05 04:15:08;;;;;;;7.82;7.13;;;;;;;5.17;81.36;99412.50;5087127;28;20119;-25
2022/04/05 04:17:34;;;;;;;7.57;6.88;;;;;;;5.18;81.58;99409.03;5087187;28;20035;-24
2022/04/05 04:19:59;;;;;;;7.90;7.05;;;;;;;5.15;81.97;99409.06;5088325;28;20402;-24
2022/04/05 04:22:26;;;;;;;8.38;7.15;;;;;;;5.13;82.27;99397.72;5089745;28;20027;-24
2022/04/05 04:24:52;;;;;;;7.43;6.72;;;;;;;5.18;82.38;99400.31;5089425;28;20031;-25
2022/04/05 04:27:18;;;;;;;7.85;7.05;;;;;;;5.15;82.54;99409.06;5086829;28;20077;-24
2022/04/05 04:29:43;;;;;;;8.55;7.30;;;;;;;5.18;82.06;99413.38;5068484;28;20019;-24
2022/04/05 04:32:09;;;;;;;8.05;7.22;;;;;;;5.16;82.29;99415.16;5089834;28;20434;-25
2022/04/05 04:34:34;;;;;;;8.65;7.55;;;;;;;5.16;82.12;99405.56;5069519;28;20028;-25
2022/04/05 04:37:01;;;;;;;7.78;6.97;;;;;;;5.20;81.30;99417.72;5083570;28;20028;-25
2022/04/05 04:39:27;;;;;;;7.32;6.63;;;;;;;5.21;81.45;99429.94;5086876;28;20127;-25
2022/04/05 04:41:56;;;;;;;7.80;7.00;;;;;;;5.18;81.54;99429.94;5089402;28;20019;-24
2022/04/05 04:44:22;;;;;;;7.40;6.70;;;;;;;5.19;81.86;99430.81;5091110;28;20115;-25
2022/04/05 04:46:47;;;;;;;8.70;6.72;;;;;;;5.22;81.84;99426.44;5090667;28;20069;-25
2022/04/05 04:49:13;;;;;;;7.47;6.70;;;;;;;5.21;81.56;99422.09;5091824;28;20020;-25
2022/04/05 04:51:38;;;;;;;8.05;7.25;;;;;;;5.18;81.77;99418.63;5089713;28;20473;-24
2022/04/05 04:54:03;;;;;;;7.22;6.53;;;;;;;5.17;82.42;99422.97;5085386;28;20053;-25
2022/04/05 04:56:29;;;;;;;8.02;7.22;;;;;;;5.19;81.73;99436.03;5092361;28;20031;-24
2022/04/05 04:58:54;;;;;;;8.85;7.95;;;;;;;5.22;81.87;99438.63;5071015;28;20516;-24
2022/04/05 05:01:20;;;;;;;8.20;6.95;;;;;;;5.23;81.18;99443.84;5088820;28;20031;-24
2022/04/05 05:03:45;;;;;;;7.10;6.40;;;;;;;5.22;81.44;99449.97;5091410;28;21209;-24
2022/04/05 05:06:11;;;;;;;7.10;6.40;;;;;;;5.22;81.41;99455.19;5089121;28;20075;-23
2022/04/05 05:08:37;;;;;;;7.85;6.97;;;;;;;5.22;81.64;99457.81;5087575;28;20458;-24
2022/04/05 05:11:02;;;;;;;6.93;6.22;;;;;;;5.23;81.67;99453.44;5086858;28;20031;-25
2022/04/05 05:13:28;;;;;;;7.70;7.00;;;;;;;5.25;81.43;99457.78;5071667;28;20393;-23
2022/04/05 05:15:54;;;;;;;6.95;6.25;;;;;;;5.26;80.91;99462.13;5091879;28;20131;-23
2022/04/05 05:18:19;;;;;;;9.48;6.47;;;;;;;5.27;81.71;99463.00;5086493;28;20032;-24
2022/04/05 05:20:45;;;;;;;7.22;6.47;;;;;;;5.31;81.37;99469.06;5088565;28;20061;-23
2022/04/05 05:23:10;;;;;;;7.78;6.82;;;;;;;5.32;81.25;99469.06;5093815;28;20055;-23
2022/04/05 05:25:36;;;;;;;7.22;6.25;;;;;;;5.33;81.56;99472.56;5075937;28;20031;-25
2022/04/05 05:28:01;;;;;;;6.90;6.22;;;;;;;5.34;82.24;99476.91;5092660;28;20020;-25
2022/04/05 05:30:27;;;;;;;6.70;5.82;;;;;;;5.34;82.01;99474.28;5094963;28;20917;-24
2022/04/05 05:32:52;;;;;;;6.30;5.70;;;;;;;5.37;81.71;99484.72;5074407;28;20596;-24
2022/04/05 05:35:20;;;;;;;6.22;5.53;;;;;;;5.38;81.85;99489.06;5088760;28;20024;-24
2022/04/05 05:37:45;;;;;;;6.03;5.45;;;;;;;5.37;83.04;99492.56;5100424;28;20067;-21
2022/04/05 05:40:12;;;;;;;6.03;5.43;;;;;;;5.39;82.59;99491.69;5095166;28;20056;-24
2022/04/05 05:42:57;;;;;;;5.97;5.38;;;;;;;5.42;82.25;99489.91;5096353;28;20031;-24
2022/04/05 05:45:24;;;;;;;6.13;5.53;;;;;;;5.46;81.44;99496.84;5088969;28;20027;-23
2022/04/05 05:47:49;;;;;;;6.70;5.95;;;;;;;5.45;83.11;99501.22;5099319;28;20122;-24
2022/04/05 05:50:15;;;;;;;5.85;5.25;;;;;;;5.48;82.78;99500.34;5091417;28;20106;-24
2022/04/05 05:52:42;;;;;;;5.60;5.05;;;;;;;5.50;82.04;99502.06;5093809;28;20041;-24
2022/04/05 05:55:08;;;;;;;5.28;4.75;;;;;;;5.54;82.12;99512.50;5097802;28;20115;-23
2022/04/05 05:57:35;;;;;;;5.45;4.95;;;;;;;5.55;83.06;99516.84;5097422;28;20031;-25
2022/04/05 06:00:02;;;;;;;5.07;4.57;;;;;;;5.57;82.34;99517.72;5065361;28;20036;-25
2022/04/05 06:02:27;;;;;;;4.85;4.35;;;;;;;5.60;83.00;99525.56;5090733;28;20111;-23
2022/04/05 06:04:53;;;;;;;4.40;4.00;;;;;;;5.60;82.55;99533.41;5084812;28;20111;-24
2022/04/05 06:07:18;;;;;;;5.25;3.83;;;;;;;5.63;82.18;99530.72;5092521;28;20921;-24
2022/04/05 06:09:44;;;;;;;5.03;3.85;;;;;;;5.65;81.68;99535.09;5084415;28;20389;-25
2022/04/05 06:12:09;;;;;;;4.28;3.88;;;;;;;5.67;82.29;99537.69;5085952;28;20040;-22
2022/04/05 06:14:35;;;;;;;4.22;3.83;;;;;;;5.71;82.49;99549.00;5074244;28;20077;-24
2022/04/05 06:17:00;;;;;;;3.65;3.35;;;;;;;5.72;82.11;99543.78;5079957;28;20024;-24
2022/04/05 06:19:26;;;;;;;3.65;3.35;;;;;;;5.74;82.85;99547.22;5079936;28;20067;-24
2022/04/05 06:21:51;;;;;;;3.78;3.38;;;;;;;5.76;82.27;99550.72;5064273;28;20024;-25
2022/04/05 06:24:18;;;;;;;3.55;3.10;;;;;;;5.80;81.36;99555.94;5089308;28;20031;-24
2022/04/05 06:26:43;;;;;;;3.20;2.90;;;;;;;5.83;82.55;99569.00;5085792;28;20012;-24
2022/04/05 06:29:09;;;;;;;3.35;3.05;;;;;;;5.85;81.75;99561.97;5075369;28;20085;-25
2022/04/05 06:31:34;;;;;;;3.47;3.00;;;;;;;5.87;82.43;99571.56;5090754;28;20021;-24
2022/04/05 06:34:02;;;;;;;3.00;2.80;;;;;;;5.91;82.26;99580.28;5089103;28;20782;-24
2022/04/05 06:36:29;;;;;;;3.40;3.10;;;;;;;5.93;81.58;99565.41;5090104;28;20028;-24
2022/04/05 06:38:54;;;;;;;3.20;2.90;;;;;;;5.96;82.38;99586.31;5093872;28;20047;-24
2022/04/05 06:41:20;;;;;;;3.15;2.88;;;;;;;5.97;81.83;99568.88;5090653;28;20059;-24
2022/04/05 06:43:46;;;;;;;3.00;2.80;;;;;;;6.00;81.71;99574.09;5070504;28;20441;-24
2022/04/05 06:46:11;;;;;;;2.80;2.60;;;;;;;6.01;81.78;99579.28;5083088;28;20090;-23
2022/04/05 06:48:37;;;;;;;3.05;2.85;;;;;;;6.03;81.26;99572.34;5089888;28;20605;-24
2022/04/05 06:51:02;;;;;;;3.25;2.90;;;;;;;6.07;81.49;99574.94;5084169;28;20470;-23
2022/04/05 06:53:28;;;;;;;3.10;2.80;;;;;;;6.09;81.56;99575.78;5088591;28;20418;-25
2022/04/05 06:55:53;;;;;;;2.47;2.28;;;;;;;6.12;81.12;99575.75;5085800;28;20016;-25
2022/04/05 06:58:18;;;;;;;3.13;2.88;;;;;;;6.14;81.74;99585.34;5080538;28;20465;-25
2022/04/05 07:00:44;;;;;;;2.65;2.45;;;;;;;6.18;81.31;99591.44;5085415;28;20478;-25
2022/04/05 07:03:09;;;;;;;2.70;2.50;;;;;;;6.22;81.53;99592.25;5091002;28;20039;-25
2022/04/05 07:05:36;;;;;;;2.80;2.53;;;;;;;6.24;81.04;99601.84;5091930;28;20051;-25
2022/04/05 07:08:02;;;;;;;3.78;2.90;;;;;;;6.28;80.45;99600.06;5085247;28;20024;-24
2022/04/05 07:10:27;;;;;;;2.85;2.65;;;;;;;6.31;80.64;99600.06;5089894;28;20028;-22
2022/04/05 07:12:53;;;;;;;3.47;3.17;;;;;;;6.34;80.82;99601.78;5087356;28;20530;-25
2022/04/05 07:15:18;;;;;;;3.30;2.95;;;;;;;6.36;80.80;99605.22;5086568;28;20085;-24
2022/04/05 07:17:44;;;;;;;3.33;2.97;;;;;;;6.38;80.18;99608.72;5091380;28;20031;-24
2022/04/05 07:20:10;;;;;;;2.75;2.55;;;;;;;6.42;80.57;99602.56;5089720;28;20115;-25
2022/04/05 07:22:36;;;;;;;3.00;2.70;;;;;;;6.45;80.57;99601.66;5091380;28;20020;-24
2022/04/05 07:25:03;;;;;;;3.22;2.92;;;;;;;6.46;80.41;99601.66;5095626;28;20024;-24
2022/04/05 07:27:29;;;;;;;3.50;2.78;;;;;;;6.51;79.98;99605.09;5089535;28;20099;-23
2022/04/05 07:29:54;;;;;;;5.85;3.60;;;;;;;6.52;80.10;99596.38;5096153;28;20106;-25
2022/04/05 07:32:20;;;;;;;4.20;3.30;;;;;;;6.56;79.56;99614.69;5090086;28;20100;-24
2022/04/05 07:34:45;;;;;;;4.38;3.60;;;;;;;6.58;79.40;99608.53;5089589;28;20139;-23
2022/04/05 07:37:11;;;;;;;2.97;2.72;;;;;;;6.59;79.67;99618.13;5070660;28;20398;-25
2022/04/05 07:39:38;;;;;;;3.00;2.72;;;;;;;6.62;79.89;99619.84;5087427;28;20402;-24
2022/04/05 07:42:04;;;;;;;3.67;3.00;;;;;;;6.62;79.76;99623.34;5089596;28;20051;-25
2022/04/05 07:44:29;;;;;;;2.83;2.60;;;;;;;6.63;78.92;99632.06;5096942;28;20558;-22
2022/04/05 07:46:54;;;;;;;4.05;3.20;;;;;;;6.63;79.05;99634.66;5098005;28;20050;-25
2022/04/05 07:49:20;;;;;;;3.30;3.00;;;;;;;6.64;78.30;99636.44;5072505;28;20221;-25
2022/04/05 07:51:45;;;;;;;3.95;3.13;;;;;;;6.61;77.74;99636.44;5088665;28;20016;-24
2022/04/05 07:54:11;;;;;;;4.50;4.00;;;;;;;6.61;78.63;99649.56;5087972;28;20386;-22
2022/04/05 07:56:36;;;;;;;3.72;3.42;;;;;;;6.59;77.84;99652.19;5090343;28;20478;-24
2022/04/05 07:59:02;;;;;;;5.38;4.07;;;;;;;6.59;77.53;99646.06;5067312;28;20110;-24
2022/04/05 08:01:29;;;;;;;4.70;4.28;;;;;;;6.59;78.90;99651.31;5086310;28;20170;-23
2022/04/05 08:03:55;;;;;;;3.60;3.30;;;;;;;6.57;78.23;99640.00;5088958;28;20032;-25
2022/04/05 08:06:21;;;;;;;4.40;4.00;;;;;;;6.59;78.03;99643.44;5095180;28;20016;-25
2022/04/05 08:08:47;;;;;;;5.45;4.63;;;;;;;6.57;77.77;99650.47;5089789;28;20117;-24
2022/04/05 08:11:12;;;;;;;8.13;7.07;;;;;;;6.54;77.90;99649.59;5087675;28;20032;-23
2022/04/05 08:13:38;;;;;;;15.38;12.45;;;;;;;6.54;77.70;99657.47;5089063;28;20035;-24
2022/04/05 08:16:03;;;;;;;12.00;10.65;;;;;;;6.54;77.67;99656.59;5082010;28;20047;-23
2022/04/05 08:18:29;;;;;;;11.75;9.70;;;;;;;6.52;77.82;99651.38;5090865;28;20058;-25
2022/04/05 08:20:54;;;;;;;10.05;9.02;;;;;;;6.52;77.25;99658.34;5087016;28;20062;-21
2022/04/05 08:23:20;;;;;;;8.82;7.93;;;;;;;6.52;78.11;99653.13;5092243;28;20068;-24
2022/04/05 08:25:45;;;;;;;9.30;7.35;;;;;;;6.50;78.09;99661.00;5088235;28;20022;-25
2022/04/05 08:28:11;;;;;;;7.10;6.18;;;;;;;6.50;77.56;99650.50;5085389;28;20024;-25
2022/04/05 08:30:36;;;;;;;6.65;6.05;;;;;;;6.50;77.58;99665.38;5086022;28;20103;-22
2022/04/05 08:33:02;;;;;;;6.97;6.28;;;;;;;6.50;77.57;99666.22;5093086;28;20042;-25
2022/04/05 08:35:27;;;;;;;6.45;5.78;;;;;;;6.49;77.19;99667.13;5082909;28;20024;-25
2022/04/05 08:37:55;;;;;;;7.25;6.05;;;;;;;6.50;78.67;99666.22;5086899;28;20031;-24
2022/04/05 08:40:23;;;;;;;9.18;7.65;;;;;;;6.50;77.31;99666.22;5066308;28;20030;-25
2022/04/05 08:42:53;;;;;;;7.75;6.75;;;;;;;6.48;78.12;99673.25;5089589;28;20036;-25
2022/04/05 08:45:19;;;;;;;10.38;8.55;;;;;;;6.51;78.37;99675.81;5089363;28;20033;-25
2022/04/05 08:47:52;;;;;;;9.38;8.48;;;;;;;6.52;78.09;99680.19;5071849;28;20033;-23
2022/04/05 08:50:23;;;;;;;8.85;7.90;;;;;;;6.52;77.70;99677.56;5079997;28;20363;-24
2022/04/05 08:52:49;;;;;;;11.13;7.55;;;;;;;6.54;78.25;99678.41;5066262;28;20043;-24
2022/04/05 08:55:16;;;;;;;7.80;7.10;;;;;;;6.53;78.38;99681.94;5083744;28;20065;-25
2022/04/05 08:57:41;;;;;;;8.10;6.82;;;;;;;6.54;79.08;99683.66;5072617;28;20016;-24
2022/04/05 09:00:09;;;;;;;7.10;4.88;;;;;;;6.56;79.52;99681.03;5079392;28;20282;-24
2022/04/05 09:02:34;;;;;;;5.38;4.78;;;;;;;6.57;78.57;99687.16;5068920;28;20020;-24
2022/04/05 09:05:00;;;;;;;11.30;5.85;;;;;;;6.59;79.30;99685.38;5086223;28;20095;-24
2022/04/05 09:07:30;;;;;;;4.28;3.88;;;;;;;6.60;79.67;99687.13;5066545;28;20016;-23
2022/04/05 09:10:09;;;;;;;7.97;4.07;;;;;;;6.60;79.33;99698.47;5090903;28;20034;-23
2022/04/05 09:12:39;;;;;;;6.22;3.83;;;;;;;6.61;78.82;99694.97;5083367;28;20028;-22
2022/04/05 09:15:29;;;;;;;5.40;3.65;;;;;;;6.64;78.43;99694.91;5085880;28;20028;-21
2022/04/05 09:17:54;;;;;;;6.60;4.30;;;;;;;6.67;78.38;99697.53;5086958;28;20036;-22
2022/04/05 09:20:24;;;;;;;6.63;4.30;;;;;;;6.75;77.52;99691.34;5088224;28;20016;-22
2022/04/05 09:22:51;;;;;;;5.25;3.90;;;;;;;6.80;77.43;99693.03;5083074;28;20400;-21
2022/04/05 09:25:16;;;;;;;3.97;3.10;;;;;;;6.83;77.44;99692.13;5078347;28;20505;-22
2022/04/05 09:27:48;;;;;;;6.35;3.50;;;;;;;6.89;78.52;99688.59;5084594;28;20032;-22
2022/04/05 09:30:14;;;;;;;;;;;;;;;6.91;78.94;99692.94;5084685;28;20029;-21
2022/04/05 09:32:42;;;;;;;4.53;3.30;;;;;;;6.97;77.79;99686.75;5084120;28;20298;-22
2022/04/05 09:35:07;;;;;;;6.88;3.50;;;;;;;7.02;78.35;99694.59;5090969;28;20419;-22
2022/04/05 09:37:38;;;;;;;4.93;3.58;;;;;;;7.09;76.99;99685.78;5086335;28;20025;-23
2022/04/05 09:40:25;;;;;;;5.57;3.67;;;;;;;7.16;77.72;99691.81;5083187;28;20016;-22
2022/04/05 09:43:16;;;;;;;6.82;3.97;;;;;;;7.23;77.46;99685.63;5097923;28;20033;-21
2022/04/05 09:45:42;;;;;;;4.65;3.47;;;;;;;7.27;77.53;99679.44;5074259;28;20028;-21
2022/04/05 09:48:08;;;;;;;4.75;3.50;;;;;;;7.34;77.40;99688.13;5087249;28;20022;-21
2022/04/05 09:51:00;;;;;;;5.40;4.20;;;;;;;7.38;77.05;99692.47;5083694;28;20102;-22
2022/04/05 09:53:29;;;;;;;;;;;;;;;7.43;77.49;99687.13;5083414;28;20502;-21
2022/04/05 09:56:10;;;;;;;7.35;3.58;;;;;;;7.49;76.83;99680.94;5083918;28;19950;-22
2022/04/05 09:58:37;;;;;;;5.93;4.13;;;;;;;7.55;76.44;99686.13;5083214;28;20374;-21
2022/04/05 10:01:11;;;;;;;6.78;4.45;;;;;;;7.58;76.23;99681.69;5048979;28;20032;-22
2022/04/05 10:03:39;;;;;;;5.97;3.92;;;;;;;7.69;76.71;99680.69;5090203;28;20028;-22
2022/04/05 10:06:05;;;;;;;8.32;4.65;;;;;;;7.76;76.63;99679.72;5087238;28;20420;-21
2022/04/05 10:08:32;;;;;;;7.93;4.15;;;;;;;7.82;76.84;99681.41;5064553;28;20024;-21
2022/04/05 10:10:59;;;;;;;7.00;4.07;;;;;;;7.90;77.18;99678.69;5087823;28;20444;-21
2022/04/05 10:13:25;;;;;;;5.03;4.28;;;;;;;7.98;76.00;99673.31;5045403;28;20031;-22
2022/04/05 10:15:51;;;;;;;5.53;4.75;;;;;;;8.04;76.15;99678.50;5086112;28;20068;-21
2022/04/05 10:18:20;;;;;;;6.80;4.60;;;;;;;8.09;76.41;99672.28;5078093;28;20017;-22
2022/04/05 10:20:50;;;;;;;6.88;4.22;;;;;;;8.17;76.17;99672.13;5062854;28;20055;-21
2022/04/05 10:23:20;;;;;;;6.70;4.45;;;;;;;8.24;75.80;99675.56;5084790;28;20073;-21
2022/04/05 10:25:50;;;;;;;5.88;4.45;;;;;;;8.32;75.40;99673.69;5092824;28;20055;-21
2022/04/05 10:28:19;;;;;;;7.10;4.65;;;;;;;8.40;75.59;99668.28;5084103;28;20020;-21
2022/04/05 10:30:50;;;;;;;8.57;4.85;;;;;;;8.51;75.66;99676.00;5067318;28;20028;-22
2022/04/05 10:33:31;;;;;;;10.85;5.90;;;;;;;8.60;76.13;99669.75;5089686;28;20031;-21
2022/04/05 10:35:59;;;;;;;6.72;5.05;;;;;;;8.66;75.77;99669.66;5088715;28;20036;-21
2022/04/05 10:38:27;;;;;;;9.05;5.18;;;;;;;8.77;75.04;99656.31;5069462;28;20097;-22
2022/04/05 10:41:10;;;;;;;8.75;5.70;;;;;;;8.90;75.56;99671.88;5068171;28;20020;-21
2022/04/05 10:43:38;;;;;;;5.25;4.50;;;;;;;8.99;74.84;99658.53;5090720;28;20379;-21
2022/04/05 10:46:04;;;;;;;8.25;5.55;;;;;;;9.08;75.91;99660.13;5092728;28;20020;-21
2022/04/05 10:48:31;;;;;;;5.70;4.82;;;;;;;9.16;75.31;99649.44;5087544;28;20042;-21
2022/04/05 10:50:59;;;;;;;6.80;5.07;;;;;;;9.27;75.41;99655.38;5093292;28;20024;-21
2022/04/05 10:53:33;;;;;;;6.30;4.93;;;;;;;9.37;75.42;99646.41;5082877;28;20861;-21
2022/04/05 10:56:07;;;;;;;9.07;5.38;;;;;;;9.47;75.73;99641.81;5088320;28;20048;-21
2022/04/05 10:58:35;;;;;;;6.93;4.60;;;;;;;9.53;75.40;99643.44;5075030;28;20020;-22
2022/04/05 11:01:24;;;;;;;8.05;4.38;;;;;;;9.57;74.47;99652.16;5094143;28;20024;-21
2022/04/05 11:04:29;;;;;;;5.20;4.20;;;;;;;9.61;73.85;99640.66;5055953;28;20027;-21
2022/04/05 11:07:01;;;;;;;6.80;4.13;;;;;;;9.65;73.89;99644.94;5000302;28;20483;-21
2022/04/05 11:09:32;;;;;;;5.82;3.58;;;;;;;9.68;73.56;99642.25;5073665;28;20043;-21
2022/04/05 11:12:00;;;;;;;5.95;3.92;;;;;;;9.67;73.38;99642.28;5088177;28;20024;-22
2022/04/05 11:14:35;;;;;;;6.15;4.45;;;;;;;9.69;73.02;99630.81;5086100;28;20359;-22
2022/04/05 11:17:05;;;;;;;6.03;4.88;;;;;;;9.73;73.27;99639.50;5088974;28;20062;-21
2022/04/05 11:19:52;;;;;;;5.22;3.80;;;;;;;9.78;72.67;99645.56;5087071;28;20028;-21
2022/04/05 11:22:20;;;;;;;3.45;3.15;;;;;;;9.78;72.02;99635.00;5082933;28;20119;-22
2022/04/05 11:25:07;;;;;;;2.47;2.28;;;;;;;9.81;71.82;99639.34;5089014;28;20019;-21
2022/04/05 11:27:45;;;;;;;3.05;2.40;;;;;;;9.81;71.76;99637.59;5068773;28;20479;-21
2022/04/05 11:30:23;;;;;;;2.22;2.03;;;;;;;9.87;71.90;99642.69;5085859;28;20036;-22
2022/04/05 11:33:12;;;;;;;3.42;2.08;;;;;;;9.88;72.19;99628.63;5088668;28;20024;-21
2022/04/05 11:35:58;;;;;;;2.53;2.33;;;;;;;9.91;72.34;99629.47;5093366;28;20027;-21
2022/04/05 11:38:27;;;;;;;2.83;2.13;;;;;;;9.92;71.96;99633.81;5083180;28;20470;-21
2022/04/05 11:40:54;;;;;;;2.72;2.25;;;;;;;9.95;72.45;99631.13;5083988;28;20039;-22
2022/04/05 11:43:39;;;;;;;2.03;1.90;;;;;;;9.97;71.94;99618.78;5089083;28;20559;-21